createdAt,value
2017-06-08T16:47:26.781Z,39.98
2017-06-08T16:47:55.103Z,40.37
2017-06-08T16:48:23.281Z,40.66
2017-06-08T16:48:51.557Z,40.97
2017-06-08T16:49:19.755Z,40.78
2017-06-08T16:49:47.986Z,40.29
2017-06-08T16:50:16.152Z,40.09
2017-06-08T16:50:44.358Z,39.92
2017-06-08T16:51:12.514Z,39.31
2017-06-08T16:51:40.813Z,39.9
2017-06-08T16:52:08.934Z,39.9
2017-06-08T16:52:37.080Z,39.8
2017-06-08T16:53:05.143Z,40.19
2017-06-08T16:53:33.257Z,39.82
2017-06-08T16:54:01.203Z,40.01
2017-06-08T16:54:29.377Z,39.53
2017-06-08T16:54:57.712Z,39.72
2017-06-08T16:55:25.965Z,38.94
2017-06-08T16:55:54.205Z,38.75
2017-06-08T16:56:22.375Z,38.63
2017-06-08T16:56:50.581Z,39.02
2017-06-08T16:57:18.953Z,39.12
2017-06-08T16:57:47.175Z,39.61
2017-06-08T16:58:15.284Z,39.51
2017-06-08T16:58:43.502Z,39.61
2017-06-08T16:59:11.653Z,39.41
2017-06-08T16:59:39.617Z,39.12
2017-06-08T17:00:07.861Z,38.84
2017-06-08T17:00:35.947Z,38.82
2017-06-08T17:01:04.203Z,39.04
2017-06-08T17:01:32.391Z,39.14
2017-06-08T17:02:00.577Z,38.84
2017-06-08T17:02:28.789Z,38.94
2017-06-08T17:02:57.219Z,39.53
2017-06-08T17:03:25.500Z,39.33
2017-06-08T17:03:53.640Z,39.43
2017-06-08T17:04:21.894Z,39.23
2017-06-08T17:04:49.952Z,39.14
2017-06-08T17:05:18.339Z,39.23
2017-06-08T17:05:46.500Z,39.62
2017-06-08T17:06:15.238Z,39.53
2017-06-08T17:06:44.405Z,39.43
2017-06-08T17:07:12.671Z,39.55
2017-06-08T17:07:41.317Z,39.26
2017-06-08T17:08:09.618Z,39.06
2017-06-08T17:08:37.884Z,38.94
2017-06-08T17:09:06.155Z,38.65
2017-06-08T17:09:34.303Z,39.04
2017-06-08T17:10:02.536Z,39.23
2017-06-08T17:10:30.723Z,39.43
2017-06-08T17:10:58.827Z,39.23
2017-06-08T17:11:26.994Z,39.14
2017-06-08T17:11:55.313Z,38.84
2017-06-08T17:12:23.439Z,39.22
2017-06-08T17:12:51.880Z,39.31
2017-06-08T17:13:20.142Z,39.7
2017-06-08T17:13:48.276Z,39.12
2017-06-08T17:14:16.480Z,39.41
2017-06-08T17:14:44.790Z,39.41
2017-06-08T17:15:13.104Z,39.31
2017-06-08T17:15:41.318Z,39.41
2017-06-08T17:16:09.373Z,40.09
2017-06-08T17:16:37.573Z,39.8
2017-06-08T17:17:05.648Z,39.41
2017-06-08T17:17:34.118Z,39.61
2017-06-08T17:18:02.276Z,39.9
2017-06-08T17:18:30.357Z,39.7
2017-06-08T17:18:58.580Z,39.98
2017-06-08T17:19:26.663Z,39.8
2017-06-08T17:19:54.811Z,39.7
2017-06-08T17:20:23.014Z,39.98
2017-06-08T17:20:51.263Z,40
2017-06-08T17:21:19.551Z,39.9
2017-06-08T17:21:47.745Z,40
2017-06-08T17:22:15.928Z,40
2017-06-08T17:22:43.942Z,40
2017-06-08T17:23:12.373Z,39.9
2017-06-08T17:23:40.565Z,40.29
2017-06-08T17:24:08.762Z,39.61
2017-06-08T17:24:36.931Z,39.61
2017-06-08T17:25:04.874Z,39.51
2017-06-08T17:25:33.000Z,39.9
2017-06-08T17:26:01.216Z,39.9
2017-06-08T17:26:29.459Z,39.7
2017-06-08T17:26:57.728Z,40.19
2017-06-08T17:27:25.799Z,39.51
2017-06-08T17:27:54.002Z,39.41
2017-06-08T17:28:22.368Z,39.8
2017-06-08T17:28:50.506Z,39.78
2017-06-08T17:29:18.859Z,40.19
2017-06-08T17:29:47.133Z,40.17
2017-06-08T17:30:15.279Z,39.98
2017-06-08T17:30:43.439Z,40
2017-06-08T17:31:11.700Z,39.7
2017-06-08T17:31:39.832Z,39.7
2017-06-08T17:32:07.982Z,39.41
2017-06-08T17:32:36.176Z,39.61
2017-06-08T17:33:04.572Z,39.51
2017-06-08T17:33:32.529Z,39.51
2017-06-08T17:34:00.743Z,39.41
2017-06-08T17:34:28.833Z,39.51
2017-06-08T17:34:57.106Z,39.61
2017-06-08T17:35:25.335Z,39.82
2017-06-08T17:35:53.648Z,40.01
2017-06-08T17:36:21.892Z,39.72
2017-06-08T17:36:50.078Z,39.72
2017-06-08T17:37:18.310Z,39.33
2017-06-08T17:37:46.501Z,38.94
2017-06-08T17:38:14.811Z,39.62
2017-06-08T17:38:42.867Z,39.53
2017-06-08T17:39:11.147Z,39.04
2017-06-08T17:39:39.315Z,39.53
2017-06-08T17:40:07.388Z,39.23
2017-06-08T17:40:35.669Z,39.04
2017-06-08T17:41:03.926Z,39.16
2017-06-08T17:41:32.170Z,39.23
2017-06-08T17:42:00.331Z,38.94
2017-06-08T17:42:28.607Z,38.96
2017-06-08T17:42:56.900Z,38.96
2017-06-08T17:43:25.328Z,38.77
2017-06-08T17:43:53.560Z,38.77
2017-06-08T17:44:22.436Z,39.16
2017-06-08T17:44:50.709Z,39.06
2017-06-08T17:45:18.882Z,39.18
2017-06-08T17:45:47.128Z,39.18
2017-06-08T17:46:15.779Z,38.79
2017-06-08T17:46:44.064Z,38.69
2017-06-08T17:47:12.394Z,37.81
2017-06-08T17:47:40.690Z,38.01
2017-06-08T17:48:08.904Z,37.81
2017-06-08T17:48:37.224Z,37.91
2017-06-08T17:49:05.353Z,37.93
2017-06-08T17:49:33.655Z,38.1
2017-06-08T17:50:02.066Z,37.81
2017-06-08T17:50:30.463Z,37.81
2017-06-08T17:50:58.698Z,37.81
2017-06-08T17:51:26.960Z,37.81
2017-06-08T17:51:55.234Z,37.81
2017-06-08T17:52:24.241Z,37.62
2017-06-08T17:52:52.346Z,37.91
2017-06-08T17:53:21.371Z,37.91
2017-06-08T17:53:49.935Z,37.81
2017-06-08T17:54:18.080Z,37.91
2017-06-08T17:54:46.232Z,38.2
2017-06-08T17:55:14.389Z,37.81
2017-06-08T17:55:42.643Z,37.91
2017-06-08T17:56:10.823Z,37.93
2017-06-08T17:56:39.128Z,37.34
2017-06-08T17:57:07.257Z,37.02
2017-06-08T17:57:35.531Z,36.94
2017-06-08T17:58:03.965Z,37.32
2017-06-08T17:58:32.579Z,37.71
2017-06-08T17:59:00.917Z,37.71
2017-06-08T17:59:29.272Z,37.41
2017-06-08T17:59:57.544Z,37.52
2017-06-08T18:00:25.907Z,37.71
2017-06-08T18:00:53.959Z,37.62
2017-06-08T18:01:22.159Z,37.34
2017-06-08T18:01:50.448Z,36.65
2017-06-08T18:02:18.787Z,37.04
2017-06-08T18:02:46.894Z,37.34
2017-06-08T18:03:15.164Z,36.94
2017-06-08T18:03:43.849Z,36.75
2017-06-08T18:04:12.335Z,36.63
2017-06-08T18:04:40.596Z,37.14
2017-06-08T18:05:09.234Z,37.04
2017-06-08T18:05:38.397Z,36.93
2017-06-08T18:06:06.392Z,37.14
2017-06-08T18:06:34.629Z,37.14
2017-06-08T18:07:02.885Z,36.94
2017-06-08T18:07:31.076Z,37.04
2017-06-08T18:07:59.303Z,36.65
2017-06-08T18:08:27.867Z,36.83
2017-06-08T18:08:56.390Z,36.83
2017-06-08T18:09:24.672Z,37.02
2017-06-08T18:09:52.985Z,36.93
2017-06-08T18:10:21.294Z,37.41
2017-06-08T18:10:49.446Z,37.3
2017-06-08T18:11:17.954Z,37.6
2017-06-08T18:11:46.135Z,37.77
2017-06-08T18:12:14.680Z,37.96
2017-06-08T18:12:42.923Z,38.26
2017-06-08T18:13:11.222Z,38.45
2017-06-08T18:13:40.568Z,38.82
2017-06-08T18:14:09.037Z,38.82
2017-06-08T18:14:37.375Z,39.02
2017-06-08T18:15:05.515Z,38.73
2017-06-08T18:15:33.699Z,38.82
2017-06-08T18:16:01.968Z,39.04
2017-06-08T18:16:30.186Z,38.94
2017-06-08T18:16:58.450Z,38.94
2017-06-08T18:17:26.677Z,38.94
2017-06-08T18:17:54.912Z,38.65
2017-06-08T18:18:23.118Z,38.57
2017-06-08T18:18:51.506Z,38.35
2017-06-08T18:19:19.680Z,38.55
2017-06-08T18:19:47.959Z,38.75
2017-06-08T18:20:16.410Z,38.94
2017-06-08T18:20:44.703Z,38.82
2017-06-08T18:21:12.843Z,38.82
2017-06-08T18:21:41.206Z,39.29
2017-06-08T18:22:09.460Z,39.88
2017-06-08T18:22:37.779Z,39.78
2017-06-08T18:23:05.902Z,40.27
2017-06-08T18:23:34.261Z,40.27
2017-06-08T18:24:02.560Z,40.27
2017-06-08T18:24:30.832Z,40.27
2017-06-08T18:24:58.988Z,40.09
2017-06-08T18:25:27.203Z,40
2017-06-08T18:25:55.397Z,39.7
2017-06-08T18:26:23.703Z,39.8
2017-06-08T18:26:51.921Z,39.51
2017-06-08T18:27:20.223Z,39.31
2017-06-08T18:27:48.485Z,39.12
2017-06-08T18:28:16.662Z,39.51
2017-06-08T18:28:44.944Z,39.41
2017-06-08T18:29:13.343Z,39.51
2017-06-08T18:29:41.441Z,39.59
2017-06-08T18:30:09.574Z,40.47
2017-06-08T18:30:37.782Z,40.08
2017-06-08T18:31:06.152Z,40.37
2017-06-08T18:31:34.535Z,40.66
2017-06-08T18:32:02.828Z,40.76
2017-06-08T18:32:31.196Z,41.15
2017-06-08T18:32:59.411Z,41.13
2017-06-08T18:33:27.864Z,41.15
2017-06-08T18:33:56.089Z,40.86
2017-06-08T18:34:24.291Z,40.76
2017-06-08T18:34:52.584Z,40.86
2017-06-08T18:35:20.937Z,41.05
2017-06-08T18:35:49.113Z,40.76
2017-06-08T18:36:17.266Z,40.76
2017-06-08T18:36:45.448Z,40.66
2017-06-08T18:37:13.613Z,40.66
2017-06-08T18:37:41.938Z,40.76
2017-06-08T18:38:10.275Z,41.05
2017-06-08T18:38:38.833Z,41.05
2017-06-08T18:39:07.203Z,40.86
2017-06-08T18:39:35.466Z,40.86
2017-06-08T18:40:03.582Z,40.56
2017-06-08T18:40:31.740Z,40.47
2017-06-08T18:40:59.926Z,40.47
2017-06-08T18:41:28.100Z,40.37
2017-06-08T18:41:56.279Z,40.64
2017-06-08T18:42:24.990Z,40.64
2017-06-08T18:42:53.181Z,40.83
2017-06-08T18:43:21.331Z,41.13
2017-06-08T18:43:49.390Z,41.4
2017-06-08T18:44:17.769Z,41.5
2017-06-08T18:45:17.552Z,42.18
2017-06-08T18:45:45.774Z,41.99
2017-06-08T18:46:14.056Z,41.99
2017-06-08T18:46:42.157Z,41.89
2017-06-08T18:47:10.397Z,42.38
2017-06-08T18:47:38.541Z,42.25
2017-06-08T18:48:06.585Z,42.74
2017-06-08T18:48:34.777Z,42.74
2017-06-08T18:49:03.062Z,43.04
2017-06-08T18:49:31.558Z,43.4
2017-06-08T18:49:59.754Z,43.7
2017-06-08T18:50:27.907Z,43.99
2017-06-08T18:50:56.182Z,44.55
2017-06-08T18:51:24.501Z,44.26
2017-06-08T18:51:52.717Z,44.94
2017-06-08T18:52:20.829Z,44.74
2017-06-08T18:52:49.025Z,44.74
2017-06-08T18:53:17.390Z,45.23
2017-06-08T18:53:45.650Z,45.23
2017-06-08T18:54:13.955Z,45.62
2017-06-08T18:54:42.520Z,45.81
2017-06-08T18:55:10.653Z,45.89
2017-06-08T18:55:39.123Z,45.62
2017-06-08T18:56:07.289Z,45.79
2017-06-08T18:56:35.589Z,45.69
2017-06-08T18:57:03.951Z,45.6
2017-06-08T18:57:32.258Z,45.79
2017-06-08T18:58:00.615Z,46.08
2017-06-08T18:58:28.901Z,46.18
2017-06-08T18:58:57.071Z,46.28
2017-06-08T18:59:25.506Z,46.25
2017-06-08T18:59:53.943Z,46.74
2017-06-08T19:00:22.097Z,46.94
2017-06-08T19:00:50.336Z,47.13
2017-06-08T19:01:19.384Z,47.03
2017-06-08T19:01:47.737Z,46.84
2017-06-08T19:02:15.989Z,47.42
2017-06-08T19:02:44.244Z,47.42
2017-06-08T19:03:12.562Z,47.61
2017-06-08T19:03:40.808Z,47.42
2017-06-08T19:04:08.862Z,47.42
2017-06-08T19:04:37.106Z,47.81
2017-06-08T19:05:05.364Z,47.81
2017-06-08T19:05:33.664Z,47.91
2017-06-08T19:06:01.965Z,47.81
2017-06-08T19:06:30.263Z,48.2
2017-06-08T19:06:58.530Z,48.2
2017-06-08T19:07:26.799Z,47.81
2017-06-08T19:07:55.129Z,48
2017-06-08T19:08:23.507Z,48.1
2017-06-08T19:08:51.805Z,48.2
2017-06-08T19:09:19.995Z,48.39
2017-06-08T19:09:48.340Z,48.49
2017-06-08T19:10:16.533Z,48.49
2017-06-08T19:10:44.732Z,48.68
2017-06-08T19:11:12.832Z,48.37
2017-06-08T19:11:41.880Z,48.27
2017-06-08T19:12:10.053Z,48.57
2017-06-08T19:12:38.235Z,48.37
2017-06-08T19:13:06.512Z,48.47
2017-06-08T19:13:35.480Z,48.47
2017-06-08T19:14:03.767Z,48.66
2017-06-08T19:14:31.836Z,48.95
2017-06-08T19:15:00.028Z,49.05
2017-06-08T19:15:28.155Z,49.34
2017-06-08T19:15:56.407Z,49.15
2017-06-08T19:16:24.732Z,49.24
2017-06-08T19:16:53.029Z,49.05
2017-06-08T19:17:21.237Z,49.15
2017-06-08T19:17:49.336Z,49.34
2017-06-08T19:18:17.391Z,49.12
2017-06-08T19:18:45.625Z,49.05
2017-06-08T19:19:13.777Z,49.32
2017-06-08T19:19:42.217Z,49.34
2017-06-08T19:20:10.398Z,49.41
2017-06-08T19:20:38.386Z,49.51
2017-06-08T19:21:06.435Z,49.22
2017-06-08T19:21:34.632Z,49.71
2017-06-08T19:22:02.853Z,49.8
2017-06-08T19:22:30.979Z,49.99
2017-06-08T19:22:59.186Z,50.21
2017-06-08T19:23:27.500Z,50.31
2017-06-08T19:23:55.826Z,50.41
2017-06-08T19:24:23.989Z,50.38
2017-06-08T19:24:52.393Z,50.21
2017-06-08T19:25:20.539Z,50.48
2017-06-08T19:25:48.942Z,50.48
2017-06-08T19:26:17.298Z,50.31
2017-06-08T19:26:45.348Z,50.51
2017-06-08T19:27:13.624Z,50.31
2017-06-08T19:27:41.846Z,49.92
2017-06-08T19:28:09.966Z,50.41
2017-06-08T19:28:38.222Z,50.21
2017-06-08T19:29:06.323Z,50.12
2017-06-08T19:29:34.507Z,50.7
2017-06-08T19:30:02.943Z,50.7
2017-06-08T19:30:31.173Z,50.31
2017-06-08T19:30:59.388Z,50.68
2017-06-08T19:31:27.643Z,50.51
2017-06-08T19:31:55.812Z,49.99
2017-06-08T19:32:24.199Z,50.31
2017-06-08T19:32:52.453Z,50.41
2017-06-08T19:33:20.634Z,50.41
2017-06-08T19:33:48.879Z,50.12
2017-06-08T19:34:17.119Z,50.6
2017-06-08T19:34:45.266Z,50.51
2017-06-08T19:35:13.471Z,50.7
2017-06-08T19:35:41.499Z,50.8
2017-06-08T19:36:09.798Z,50.12
2017-06-08T19:36:38.021Z,50.12
2017-06-08T19:37:06.276Z,50.21
2017-06-08T19:37:34.596Z,50.41
2017-06-08T19:38:02.812Z,50.51
2017-06-08T19:38:31.066Z,50.6
2017-06-08T19:38:59.391Z,50.51
2017-06-08T19:39:27.693Z,50.12
2017-06-08T19:39:56.088Z,50.41
2017-06-08T19:40:24.184Z,50.31
2017-06-08T19:40:52.446Z,50.41
2017-06-08T19:41:20.686Z,50.51
2017-06-08T19:41:48.680Z,50.21
2017-06-08T19:42:16.758Z,50.6
2017-06-08T19:42:45.004Z,50.31
2017-06-08T19:43:13.036Z,50.41
2017-06-08T19:43:41.090Z,50.41
2017-06-08T19:44:09.171Z,50.41
2017-06-08T19:44:37.367Z,50.51
2017-06-08T19:45:05.962Z,50.6
2017-06-08T19:45:34.256Z,50.7
2017-06-08T19:46:02.418Z,50.7
2017-06-08T19:46:30.593Z,50.6
2017-06-08T19:46:59.142Z,50.41
2017-06-08T19:47:27.223Z,50.41
2017-06-08T19:47:55.396Z,50.6
2017-06-08T19:48:23.430Z,50.51
2017-06-08T19:48:51.660Z,50.51
2017-06-08T19:49:19.927Z,50.6
2017-06-08T19:49:48.169Z,50.8
2017-06-08T19:50:16.467Z,50.7
2017-06-08T19:50:44.661Z,50.89
2017-06-08T19:51:12.840Z,50.89
2017-06-08T19:51:41.071Z,50.99
2017-06-08T19:52:09.347Z,50.89
2017-06-08T19:52:37.538Z,51.67
2017-06-08T19:53:05.850Z,51.67
2017-06-08T19:53:34.152Z,51.48
2017-06-08T19:54:02.467Z,51.57
2017-06-08T19:54:30.502Z,51.87
2017-06-08T19:54:58.751Z,51.75
2017-06-08T19:55:27.120Z,51.57
2017-06-08T19:55:55.346Z,51.75
2017-06-08T19:56:23.588Z,51.75
2017-06-08T19:56:51.867Z,51.75
2017-06-08T19:57:19.959Z,52.03
2017-06-08T19:57:48.191Z,52.13
2017-06-08T19:58:16.329Z,52.03
2017-06-08T19:58:44.456Z,52.13
2017-06-08T19:59:12.604Z,51.75
2017-06-08T19:59:40.572Z,52.13
2017-06-08T20:00:08.706Z,52.42
2017-06-08T20:00:37.165Z,52.52
2017-06-08T20:01:05.284Z,53.3
2017-06-08T20:01:33.431Z,53.1
2017-06-08T20:02:01.527Z,53.2
2017-06-08T20:02:29.654Z,53.17
2017-06-08T20:02:57.595Z,53.56
2017-06-08T20:03:25.760Z,53.37
2017-06-08T20:03:53.965Z,53.08
2017-06-08T20:04:22.128Z,53.47
2017-06-08T20:04:50.398Z,53.56
2017-06-08T20:05:18.784Z,53.47
2017-06-08T20:05:47.079Z,53.63
2017-06-08T20:06:15.234Z,53.44
2017-06-08T20:06:43.503Z,53.92
2017-06-08T20:07:11.781Z,53.92
2017-06-08T20:07:40.029Z,54.11
2017-06-08T20:08:08.355Z,54.11
2017-06-08T20:08:36.560Z,54.41
2017-06-08T20:09:04.704Z,54.6
2017-06-08T20:09:32.885Z,54.7
2017-06-08T20:10:00.916Z,54.6
2017-06-08T20:10:29.386Z,55.08
2017-06-08T20:10:57.632Z,54.86
2017-06-08T20:11:25.743Z,55.44
2017-06-08T20:11:54.019Z,55.06
2017-06-08T20:12:22.333Z,55.64
2017-06-08T20:12:50.615Z,55.26
2017-06-08T20:13:18.894Z,55.26
2017-06-08T20:13:47.163Z,55.44
2017-06-08T20:14:15.269Z,55.44
2017-06-08T20:14:43.527Z,55.35
2017-06-08T20:15:11.792Z,55.74
2017-06-08T20:15:40.136Z,56.32
2017-06-08T20:16:08.489Z,56.29
2017-06-08T20:16:36.665Z,56.13
2017-06-08T20:17:04.861Z,56.1
2017-06-08T20:17:33.113Z,56.49
2017-06-08T20:18:01.270Z,56.29
2017-06-08T20:18:29.473Z,56.39
2017-06-08T20:18:57.614Z,56.49
2017-06-08T20:19:25.768Z,56.59
2017-06-08T20:19:54.023Z,57.45
2017-06-08T20:20:22.352Z,57.17
2017-06-08T20:20:50.737Z,57.36
2017-06-08T20:21:18.936Z,57.07
2017-06-08T20:21:47.235Z,57.17
2017-06-08T20:22:15.566Z,57.17
2017-06-08T20:22:43.743Z,57.43
2017-06-08T20:23:11.711Z,57.53
2017-06-08T20:23:39.881Z,57.23
2017-06-08T20:24:07.842Z,57.33
2017-06-08T20:24:36.049Z,57.91
2017-06-08T20:25:04.234Z,58.11
2017-06-08T20:25:32.447Z,57.91
2017-06-08T20:26:00.880Z,57.91
2017-06-08T20:26:29.153Z,57.71
2017-06-08T20:26:57.307Z,58.11
2017-06-08T20:27:25.530Z,58.2
2017-06-08T20:27:53.777Z,58.49
2017-06-08T20:28:21.831Z,58.65
2017-06-08T20:28:50.012Z,58.75
2017-06-08T20:29:18.290Z,58.85
2017-06-08T20:29:46.421Z,58.85
2017-06-08T20:30:14.668Z,59.33
2017-06-08T20:30:43.005Z,59.14
2017-06-08T20:31:11.183Z,59.53
2017-06-08T20:31:39.395Z,59.53
2017-06-08T20:32:07.617Z,60.01
2017-06-08T20:32:35.880Z,60.21
2017-06-08T20:33:04.039Z,60.08
2017-06-08T20:33:32.317Z,59.98
2017-06-08T20:34:00.481Z,60.3
2017-06-08T20:34:28.723Z,60.08
2017-06-08T20:34:56.950Z,60.3
2017-06-08T20:35:25.128Z,60.21
2017-06-08T20:35:53.393Z,59.69
2017-06-08T20:36:21.716Z,60.3
2017-06-08T20:36:49.888Z,60.3
2017-06-08T20:37:18.225Z,60.27
2017-06-08T20:37:46.499Z,60.57
2017-06-08T20:38:14.722Z,60.08
2017-06-08T20:38:42.868Z,59.98
2017-06-08T20:39:10.994Z,60.27
2017-06-08T20:39:39.233Z,60.17
2017-06-08T20:40:07.503Z,60.27
2017-06-08T20:40:35.731Z,60.17
2017-06-08T20:41:04.011Z,59.98
2017-06-08T20:41:32.322Z,60.08
2017-06-08T20:42:00.786Z,59.98
2017-06-08T20:42:29.067Z,60.27
2017-06-08T20:42:57.488Z,60.08
2017-06-08T20:43:25.731Z,60.37
2017-06-08T20:43:54.187Z,60.17
2017-06-08T20:44:22.661Z,59.98
2017-06-08T20:44:51.027Z,60.27
2017-06-08T20:45:19.530Z,60.27
2017-06-08T20:45:47.831Z,60.27
2017-06-08T20:46:16.242Z,59.98
2017-06-08T20:46:44.378Z,60.08
2017-06-08T20:47:12.673Z,59.89
2017-06-08T20:47:40.824Z,59.89
2017-06-08T20:48:09.127Z,60.17
2017-06-08T20:48:37.382Z,60.08
2017-06-08T20:49:05.564Z,60.08
2017-06-08T20:49:33.674Z,60.47
2017-06-08T20:50:01.929Z,60.37
2017-06-08T20:50:30.244Z,60.37
2017-06-08T20:50:58.569Z,60.27
2017-06-08T20:51:26.795Z,60.75
2017-06-08T20:51:54.876Z,61.02
2017-06-08T20:52:23.001Z,61.5
2017-06-08T20:52:51.158Z,61.4
2017-06-08T20:53:19.423Z,61.69
2017-06-08T20:53:47.482Z,61.69
2017-06-08T20:54:15.665Z,61.98
2017-06-08T20:54:43.797Z,61.79
2017-06-08T20:55:12.075Z,61.89
2017-06-08T20:55:40.167Z,61.79
2017-06-08T20:56:08.361Z,62.08
2017-06-08T20:56:36.529Z,62.37
2017-06-08T20:57:04.691Z,61.89
2017-06-08T20:57:32.854Z,61.79
2017-06-08T20:58:01.136Z,61.98
2017-06-08T20:58:29.381Z,62.08
2017-06-08T20:58:57.665Z,62.18
2017-06-08T20:59:25.730Z,61.89
2017-06-08T20:59:53.803Z,62.18
2017-06-08T21:00:22.025Z,61.79
2017-06-08T21:00:50.215Z,61.98
2017-06-08T21:01:18.682Z,62.56
2017-06-08T21:01:46.845Z,62.37
2017-06-08T21:02:15.087Z,61.89
2017-06-08T21:02:43.279Z,62.76
2017-06-08T21:03:11.374Z,61.98
2017-06-08T21:03:39.657Z,62.76
2017-06-08T21:04:07.943Z,62.56
2017-06-08T21:04:36.189Z,62.76
2017-06-08T21:05:04.252Z,62.56
2017-06-08T21:05:32.514Z,62.27
2017-06-08T21:06:00.819Z,62.47
2017-06-08T21:06:29.539Z,62.85
2017-06-08T21:06:57.786Z,62.76
2017-06-08T21:07:25.885Z,62.85
2017-06-08T21:07:53.956Z,62.76
2017-06-08T21:08:22.147Z,62.85
2017-06-08T21:08:50.234Z,63.14
2017-06-08T21:09:18.426Z,63.24
2017-06-08T21:09:46.530Z,62.76
2017-06-08T21:10:14.680Z,63.05
2017-06-08T21:10:42.921Z,62.76
2017-06-08T21:11:11.008Z,62.85
2017-06-08T21:11:39.498Z,62.66
2017-06-08T21:12:07.721Z,62.66
2017-06-08T21:12:35.836Z,63.24
2017-06-08T21:13:04.001Z,63.24
2017-06-08T21:13:32.288Z,63.05
2017-06-08T21:14:00.438Z,62.95
2017-06-08T21:14:28.685Z,62.85
2017-06-08T21:14:56.849Z,62.95
2017-06-08T21:15:24.964Z,62.66
2017-06-08T21:15:53.019Z,63.05
2017-06-08T21:16:21.519Z,63.05
2017-06-08T21:16:49.549Z,63.05
2017-06-08T21:17:17.598Z,62.85
2017-06-08T21:17:45.781Z,62.95
2017-06-08T21:18:13.911Z,62.95
2017-06-08T21:18:42.077Z,63.34
2017-06-08T21:19:10.290Z,63.14
2017-06-08T21:19:38.386Z,63.24
2017-06-08T21:20:06.720Z,63.05
2017-06-08T21:20:35.024Z,63.53
2017-06-08T21:21:03.233Z,63.73
2017-06-08T21:21:31.819Z,63.63
2017-06-08T21:21:59.826Z,63.63
2017-06-08T21:22:27.940Z,63.73
2017-06-08T21:22:56.134Z,63.73
2017-06-08T21:23:24.372Z,63.82
2017-06-08T21:23:52.583Z,63.73
2017-06-08T21:24:20.872Z,63.82
2017-06-08T21:24:49.130Z,63.82
2017-06-08T21:25:17.179Z,63.82
2017-06-08T21:25:45.164Z,63.98
2017-06-08T21:26:13.357Z,64.01
2017-06-08T21:26:41.847Z,63.82
2017-06-08T21:27:09.997Z,63.89
2017-06-08T21:27:38.200Z,63.79
2017-06-08T21:28:06.264Z,63.63
2017-06-08T21:28:34.331Z,63.63
2017-06-08T21:29:02.382Z,64.01
2017-06-08T21:29:30.462Z,63.73
2017-06-08T21:29:58.604Z,63.24
2017-06-08T21:30:26.877Z,63.92
2017-06-08T21:30:55.150Z,63.92
2017-06-08T21:31:23.390Z,63.63
2017-06-08T21:31:51.743Z,63.63
2017-06-08T21:32:20.049Z,63.73
2017-06-08T21:32:48.334Z,63.63
2017-06-08T21:33:16.490Z,63.43
2017-06-08T21:33:44.572Z,63.53
2017-06-08T21:34:12.930Z,63.82
2017-06-08T21:34:41.169Z,63.73
2017-06-08T21:35:09.173Z,63.63
2017-06-08T21:35:37.331Z,63.6
2017-06-08T21:36:05.547Z,64.01
2017-06-08T21:36:33.529Z,64.11
2017-06-08T21:37:01.859Z,63.92
2017-06-08T21:37:29.955Z,63.98
2017-06-08T21:37:58.233Z,63.6
2017-06-08T21:38:26.266Z,63.92
2017-06-08T21:38:54.290Z,64.66
2017-06-08T21:39:22.392Z,64.47
2017-06-08T21:39:50.617Z,64.66
2017-06-08T21:40:18.719Z,64.37
2017-06-08T21:40:47.075Z,64.56
2017-06-08T21:41:15.304Z,64.76
2017-06-08T21:41:43.820Z,64.76
2017-06-08T21:42:11.925Z,64.56
2017-06-08T21:42:40.181Z,64.37
2017-06-08T21:43:08.250Z,64.66
2017-06-08T21:43:36.360Z,64.56
2017-06-08T21:44:04.542Z,64.66
2017-06-08T21:44:32.775Z,64.56
2017-06-08T21:45:01.056Z,65.34
2017-06-08T21:45:29.212Z,65.43
2017-06-08T21:45:57.255Z,64.95
2017-06-08T21:46:25.426Z,65.34
2017-06-08T21:46:53.834Z,64.85
2017-06-08T21:47:22.000Z,64.56
2017-06-08T21:47:50.202Z,65.14
2017-06-08T21:48:18.438Z,65.24
2017-06-08T21:48:46.760Z,64.47
2017-06-08T21:49:14.930Z,64.56
2017-06-08T21:49:43.169Z,64.66
2017-06-08T21:50:11.314Z,64.76
2017-06-08T21:50:39.677Z,64.76
2017-06-08T21:51:07.811Z,64.27
2017-06-08T21:51:35.871Z,64.27
2017-06-08T21:52:04.214Z,64.37
2017-06-08T21:52:32.452Z,64.18
2017-06-08T21:53:00.701Z,64.27
2017-06-08T21:53:28.969Z,64.47
2017-06-08T21:53:57.185Z,64.56
2017-06-08T21:54:25.319Z,64.37
2017-06-08T21:54:53.548Z,64.69
2017-06-08T21:55:21.739Z,64.21
2017-06-08T21:55:49.943Z,64.11
2017-06-08T21:56:18.160Z,64.01
2017-06-08T21:56:46.353Z,64.21
2017-06-08T21:57:14.636Z,63.89
2017-06-08T21:57:42.667Z,64.37
2017-06-08T21:58:10.744Z,64.31
2017-06-08T21:58:38.896Z,64.11
2017-06-08T21:59:06.982Z,64.18
2017-06-08T21:59:35.198Z,64.47
2017-06-08T22:00:03.361Z,64.18
2017-06-08T22:00:31.504Z,64.56
2017-06-08T22:00:59.806Z,64.66
2017-06-08T22:01:27.908Z,64.76
2017-06-08T22:01:56.201Z,64.76
2017-06-08T22:02:24.480Z,64.56
2017-06-08T22:02:52.588Z,64.95
2017-06-08T22:03:20.618Z,64.08
2017-06-08T22:03:48.826Z,65.24
2017-06-08T22:04:16.979Z,65.14
2017-06-08T22:04:45.253Z,65.34
2017-06-08T22:05:13.354Z,65.34
2017-06-08T22:05:41.419Z,64.85
2017-06-08T22:06:09.728Z,64.85
2017-06-08T22:06:37.890Z,65.05
2017-06-08T22:07:06.292Z,64.85
2017-06-08T22:07:34.453Z,65.24
2017-06-08T22:08:02.536Z,65.14
2017-06-08T22:08:30.495Z,65.05
2017-06-08T22:08:58.719Z,64.85
2017-06-08T22:09:26.953Z,65.14
2017-06-08T22:09:55.189Z,65.05
2017-06-08T22:10:23.338Z,65.05
2017-06-08T22:10:51.354Z,65.34
2017-06-08T22:11:19.333Z,65.59
2017-06-08T22:11:47.679Z,65.14
2017-06-08T22:12:16.146Z,65.01
2017-06-08T22:12:44.202Z,65.11
2017-06-08T22:13:12.449Z,65.11
2017-06-08T22:13:40.787Z,65.3
2017-06-08T22:14:09.129Z,65.2
2017-06-08T22:14:37.398Z,65.4
2017-06-08T22:15:05.351Z,65.59
2017-06-08T22:15:33.420Z,66.36
2017-06-08T22:16:01.471Z,66.08
2017-06-08T22:16:29.711Z,65.98
2017-06-08T22:16:57.861Z,65.88
2017-06-08T22:17:26.474Z,65.88
2017-06-08T22:17:54.425Z,66.08
2017-06-08T22:18:22.654Z,65.69
2017-06-08T22:18:50.895Z,65.98
2017-06-08T22:19:19.042Z,66.08
2017-06-08T22:19:47.197Z,66.08
2017-06-08T22:20:15.313Z,65.78
2017-06-08T22:20:43.491Z,66.08
2017-06-08T22:21:11.648Z,66.56
2017-06-08T22:21:39.723Z,65.88
2017-06-08T22:22:07.876Z,66.66
2017-06-08T22:22:36.341Z,66.66
2017-06-08T22:23:04.530Z,66.66
2017-06-08T22:23:32.786Z,66.36
2017-06-08T22:24:00.917Z,66.66
2017-06-08T22:24:29.005Z,66.91
2017-06-08T22:24:56.991Z,66.91
2017-06-08T22:25:25.292Z,67.3
2017-06-08T22:25:53.587Z,67.01
2017-06-08T22:26:21.821Z,66.82
2017-06-08T22:26:50.072Z,67.11
2017-06-08T22:27:18.372Z,67.3
2017-06-08T22:27:46.717Z,67.3
2017-06-08T22:28:14.933Z,67.49
2017-06-08T22:28:43.200Z,67.2
2017-06-08T22:29:11.531Z,67.69
2017-06-08T22:29:39.735Z,67.97
2017-06-08T22:30:07.962Z,68.07
2017-06-08T22:30:36.293Z,67.78
2017-06-08T22:31:04.520Z,67.78
2017-06-08T22:31:32.638Z,67.97
2017-06-08T22:32:00.861Z,68.07
2017-06-08T22:32:29.231Z,68.17
2017-06-08T22:32:57.258Z,68.26
2017-06-08T22:33:25.422Z,68.36
2017-06-08T22:33:53.645Z,68.17
2017-06-08T22:34:21.982Z,68.17
2017-06-08T22:34:50.252Z,68.07
2017-06-08T22:35:18.399Z,68.46
2017-06-08T22:35:46.433Z,68.17
2017-06-08T22:36:14.580Z,68.55
2017-06-08T22:36:42.801Z,68.55
2017-06-08T22:37:11.006Z,68.46
2017-06-08T22:37:39.514Z,68.46
2017-06-08T22:38:07.705Z,68.55
2017-06-08T22:38:35.977Z,68.84
2017-06-08T22:39:04.215Z,68.36
2017-06-08T22:39:32.156Z,68.65
2017-06-08T22:40:00.344Z,68.84
2017-06-08T22:40:28.551Z,68.84
2017-06-08T22:40:56.657Z,68.55
2017-06-08T22:41:24.895Z,68.75
2017-06-08T22:41:53.082Z,68.75
2017-06-08T22:42:21.253Z,68.52
2017-06-08T22:42:49.682Z,68.75
2017-06-08T22:43:17.946Z,68.71
2017-06-08T22:43:46.096Z,68.71
2017-06-08T22:44:14.242Z,69.29
2017-06-08T22:44:42.535Z,69.39
2017-06-08T22:45:10.650Z,69.29
2017-06-08T22:45:38.835Z,69.2
2017-06-08T22:46:06.968Z,69.39
2017-06-08T22:46:35.113Z,69.49
2017-06-08T22:47:03.381Z,69.49
2017-06-08T22:47:31.543Z,69.68
2017-06-08T22:47:59.857Z,69.39
2017-06-08T22:48:28.207Z,69.58
2017-06-08T22:48:56.274Z,69.68
2017-06-08T22:49:24.563Z,70.16
2017-06-08T22:49:52.806Z,70.06
2017-06-08T22:50:21.095Z,69.87
2017-06-08T22:50:49.178Z,70.06
2017-06-08T22:51:17.373Z,69.87
2017-06-08T22:51:45.677Z,70.16
2017-06-08T22:52:13.969Z,70.16
2017-06-08T22:52:42.254Z,69.87